createdAt,value
2018-08-04T00:00:00.960Z,7.70
2018-08-04T00:00:34.825Z,7.37
2018-08-04T00:01:08.681Z,7.53
2018-08-04T00:01:42.905Z,7.63
2018-08-04T00:02:17.090Z,7.57
2018-08-04T00:02:51.304Z,8.17
2018-08-04T00:03:25.589Z,8.50
2018-08-04T00:03:59.499Z,7.63
2018-08-04T00:04:33.364Z,7.67
2018-08-04T00:05:08.957Z,7.60
2018-08-04T00:05:42.806Z,8.73
2018-08-04T00:06:17.343Z,7.70
2018-08-04T00:06:51.173Z,7.60
2018-08-04T00:07:25.069Z,7.37
2018-08-04T00:07:58.902Z,7.27
2018-08-04T00:08:32.799Z,8.13
2018-08-04T00:09:08.931Z,8.00
2018-08-04T00:09:42.783Z,7.23
2018-08-04T00:10:19.348Z,7.63
2018-08-04T00:10:53.547Z,7.60
2018-08-04T00:11:27.427Z,7.17
2018-08-04T00:12:01.292Z,7.53
2018-08-04T00:12:36.517Z,7.93
2018-08-04T00:13:10.427Z,7.07
2018-08-04T00:13:44.293Z,7.03
2018-08-04T00:14:18.461Z,6.63
2018-08-04T00:14:52.333Z,6.80
2018-08-04T00:15:26.544Z,6.63
2018-08-04T00:16:00.453Z,7.03
2018-08-04T00:16:35.671Z,8.00
2018-08-04T00:17:09.902Z,7.73
2018-08-04T00:17:44.809Z,7.03
2018-08-04T00:18:19.035Z,9.60
2018-08-04T00:18:53.255Z,7.20
2018-08-04T00:19:27.457Z,7.17
2018-08-04T00:20:01.632Z,7.03
2018-08-04T00:20:35.471Z,7.67
2018-08-04T00:21:09.661Z,7.57
2018-08-04T00:21:43.531Z,7.37
2018-08-04T00:22:17.551Z,6.70
2018-08-04T00:22:51.999Z,7.80
2018-08-04T00:23:25.919Z,7.60
2018-08-04T00:24:00.113Z,6.90
2018-08-04T00:24:33.961Z,6.90
2018-08-04T00:25:08.023Z,7.80
2018-08-04T00:25:42.181Z,6.87
2018-08-04T00:26:27.463Z,8.20
2018-08-04T00:27:01.299Z,7.20
2018-08-04T00:27:35.295Z,7.43
2018-08-04T00:28:09.205Z,6.70
2018-08-04T00:28:43.407Z,7.60
2018-08-04T00:29:17.203Z,7.40
2018-08-04T00:29:51.047Z,8.33
2018-08-04T00:30:25.705Z,8.40
2018-08-04T00:30:59.617Z,11.10
2018-08-04T00:31:34.463Z,11.10
2018-08-04T00:32:08.362Z,8.00
2018-08-04T00:32:43.274Z,7.87
2018-08-04T00:33:17.159Z,8.30
2018-08-04T00:33:51.107Z,7.57
2018-08-04T00:34:24.957Z,8.00
2018-08-04T00:34:58.847Z,7.43
2018-08-04T00:35:32.699Z,7.50
2018-08-04T00:36:06.567Z,7.50
2018-08-04T00:36:40.445Z,8.00
2018-08-04T00:37:14.357Z,7.53
2018-08-04T00:37:48.250Z,6.90
2018-08-04T00:38:22.845Z,8.33
2018-08-04T00:38:57.091Z,7.40
2018-08-04T00:39:31.301Z,7.80
2018-08-04T00:40:06.604Z,7.70
2018-08-04T00:40:40.846Z,7.53
2018-08-04T00:41:15.425Z,8.20
2018-08-04T00:41:49.063Z,8.90
2018-08-04T00:42:22.917Z,7.40
2018-08-04T00:42:57.117Z,8.10
2018-08-04T00:43:31.033Z,8.03
2018-08-04T00:44:04.905Z,8.07
2018-08-04T00:44:38.805Z,7.87
2018-08-04T00:45:13.337Z,7.77
2018-08-04T00:45:47.548Z,8.40
2018-08-04T00:46:21.642Z,7.67
2018-08-04T00:46:55.869Z,7.73
2018-08-04T00:47:30.082Z,8.37
2018-08-04T00:48:03.969Z,8.07
2018-08-04T00:48:38.057Z,8.63
2018-08-04T00:49:12.245Z,8.10
2018-08-04T00:49:46.113Z,8.40
2018-08-04T00:50:20.032Z,7.63
2018-08-04T00:50:53.911Z,7.83
2018-08-04T00:51:27.787Z,7.90
2018-08-04T00:52:01.653Z,8.33
2018-08-04T00:52:35.543Z,7.93
2018-08-04T00:53:09.417Z,8.23
2018-08-04T00:53:43.762Z,7.80
2018-08-04T00:54:17.957Z,8.70
2018-08-04T00:54:51.859Z,8.27
2018-08-04T00:55:25.761Z,8.70
2018-08-04T00:55:59.647Z,8.83
2018-08-04T00:56:33.845Z,8.80
2018-08-04T00:57:08.065Z,8.50
2018-08-04T00:57:41.959Z,8.13
2018-08-04T00:58:16.182Z,7.87
2018-08-04T00:58:50.430Z,8.10
2018-08-04T00:59:24.359Z,7.83
2018-08-04T00:59:58.236Z,7.87
2018-08-04T01:00:32.121Z,8.13
2018-08-04T01:01:06.439Z,8.40
2018-08-04T01:01:40.637Z,8.40
2018-08-04T01:02:14.521Z,7.90
2018-08-04T01:02:48.903Z,8.57
2018-08-04T01:03:22.771Z,8.57
2018-08-04T01:03:57.025Z,8.70
2018-08-04T01:04:30.873Z,7.83
2018-08-04T01:05:04.841Z,8.77
2018-08-04T01:05:39.027Z,7.73
2018-08-04T01:06:12.887Z,7.90
2018-08-04T01:06:46.743Z,7.60
2018-08-04T01:07:20.384Z,8.50
2018-08-04T01:07:54.158Z,8.57
2018-08-04T01:08:28.355Z,8.70
2018-08-04T01:09:02.947Z,8.43
2018-08-04T01:09:37.206Z,8.80
2018-08-04T01:10:11.286Z,7.50
2018-08-04T01:10:45.169Z,8.10
2018-08-04T01:16:23.113Z,8.33
2018-08-04T01:16:56.995Z,8.10
2018-08-04T01:17:31.719Z,8.40
2018-08-04T01:18:05.579Z,8.43
2018-08-04T01:18:40.147Z,8.60
2018-08-04T01:19:14.002Z,8.50
2018-08-04T01:19:48.221Z,8.87
2018-08-04T01:20:22.758Z,8.93
2018-08-04T01:20:56.611Z,8.60
2018-08-04T01:21:30.457Z,8.70
2018-08-04T01:22:04.333Z,9.00
2018-08-04T01:22:38.167Z,9.50
2018-08-04T01:23:12.345Z,8.60
2018-08-04T01:23:46.181Z,8.77
2018-08-04T01:24:20.079Z,9.30
2018-08-04T01:24:54.605Z,7.90
2018-08-04T01:25:28.813Z,9.87
2018-08-04T01:26:03.337Z,8.47
2018-08-04T01:26:37.206Z,8.73
2018-08-04T01:27:11.039Z,8.33
2018-08-04T01:27:44.897Z,8.40
2018-08-04T01:28:18.787Z,8.17
2018-08-04T01:28:52.647Z,8.87
2018-08-04T01:29:26.597Z,8.13
2018-08-04T01:30:00.433Z,8.00
2018-08-04T01:30:34.465Z,8.20
2018-08-04T01:31:08.655Z,8.60
2018-08-04T01:31:42.737Z,8.30
2018-08-04T01:32:16.649Z,8.90
2018-08-04T01:32:50.499Z,8.93
2018-08-04T01:33:24.350Z,9.63
2018-08-04T01:33:58.211Z,9.00
2018-08-04T01:34:32.598Z,8.80
2018-08-04T01:35:06.895Z,9.40
2018-08-04T01:35:40.733Z,9.43
2018-08-04T01:36:14.580Z,8.53
2018-08-04T01:36:48.420Z,9.63
2018-08-04T01:37:22.571Z,10.63
2018-08-04T01:37:56.757Z,9.93
2018-08-04T01:38:31.261Z,8.50
2018-08-04T01:39:07.553Z,9.70
2018-08-04T01:39:41.783Z,9.13
2018-08-04T01:40:15.958Z,8.80
2018-08-04T01:40:50.165Z,8.80
2018-08-04T01:41:23.999Z,9.03
2018-08-04T01:41:57.890Z,8.50
2018-08-04T01:42:32.043Z,9.00
2018-08-04T01:43:06.232Z,8.20
2018-08-04T01:43:40.102Z,8.40
2018-08-04T01:44:13.949Z,8.43
2018-08-04T01:44:47.842Z,8.37
2018-08-04T01:45:21.687Z,8.13
2018-08-04T01:45:55.519Z,8.17
2018-08-04T01:46:29.341Z,8.83
2018-08-04T01:47:03.528Z,7.67
2018-08-04T01:47:37.366Z,8.43
2018-08-04T01:48:11.578Z,8.37
2018-08-04T01:48:45.754Z,8.20
2018-08-04T01:49:19.634Z,7.97
2018-08-04T01:49:53.467Z,8.70
2018-08-04T01:50:27.654Z,8.43
2018-08-04T01:51:01.510Z,8.43
2018-08-04T01:51:35.699Z,7.53
2018-08-04T01:52:09.608Z,8.47
2018-08-04T01:52:43.469Z,8.77
2018-08-04T01:53:17.641Z,8.80
2018-08-04T01:53:51.518Z,8.10
2018-08-04T01:54:25.386Z,8.40
2018-08-04T01:54:59.212Z,8.93
2018-08-04T01:55:33.410Z,9.00
2018-08-04T01:56:07.244Z,8.03
2018-08-04T01:56:41.081Z,8.60
2018-08-04T01:57:14.951Z,8.93
2018-08-04T01:57:48.821Z,8.03
2018-08-04T01:58:22.667Z,8.60
2018-08-04T01:58:56.582Z,9.00
2018-08-04T01:59:30.766Z,8.50
2018-08-04T02:00:05.074Z,8.83
2018-08-04T02:00:38.941Z,9.00
2018-08-04T02:01:12.801Z,9.13
2018-08-04T02:01:46.412Z,8.50
2018-08-04T02:02:20.179Z,8.60
2018-08-04T02:02:54.025Z,8.80
2018-08-04T02:03:27.893Z,8.50
2018-08-04T02:04:01.747Z,8.03
2018-08-04T02:04:35.938Z,8.93
2018-08-04T02:05:09.803Z,9.20
2018-08-04T02:05:43.637Z,8.07
2018-08-04T02:06:17.870Z,8.30
2018-08-04T02:06:52.031Z,8.10
2018-08-04T02:07:25.898Z,8.83
2018-08-04T02:07:59.771Z,7.57
2018-08-04T02:08:33.955Z,8.63
2018-08-04T02:09:09.129Z,9.03
2018-08-04T02:09:43.054Z,8.93
2018-08-04T02:10:16.886Z,8.20
2018-08-04T02:10:50.842Z,8.27
2018-08-04T02:11:24.717Z,8.03
2018-08-04T02:11:58.907Z,8.47
2018-08-04T02:12:33.442Z,8.13
2018-08-04T02:13:07.299Z,8.50
2018-08-04T02:13:41.157Z,8.87
2018-08-04T02:14:15.735Z,8.10
2018-08-04T02:14:49.557Z,8.07
2018-08-04T02:15:23.734Z,7.83
2018-08-04T02:15:57.556Z,8.00
2018-08-04T02:16:31.463Z,8.60
2018-08-04T02:17:05.318Z,7.83
2018-08-04T02:17:39.176Z,7.90
2018-08-04T02:18:13.046Z,7.83
2018-08-04T02:18:46.911Z,7.90
2018-08-04T02:19:21.101Z,7.83
2018-08-04T02:19:54.968Z,8.97
2018-08-04T02:20:29.181Z,7.90
2018-08-04T02:21:03.370Z,8.37
2018-08-04T02:21:37.256Z,8.20
2018-08-04T02:22:11.137Z,8.10
2018-08-04T02:22:44.983Z,8.33
2018-08-04T02:23:19.203Z,9.37
2018-08-04T02:23:53.238Z,8.83
2018-08-04T02:24:27.510Z,8.70
2018-08-04T02:25:01.737Z,8.53
2018-08-04T02:25:35.629Z,7.30
2018-08-04T02:26:10.147Z,9.30
2018-08-04T02:26:44.035Z,8.23
2018-08-04T02:27:17.621Z,9.10
2018-08-04T02:27:51.390Z,8.37
2018-08-04T02:28:25.611Z,7.83
2018-08-04T02:28:59.789Z,9.00
2018-08-04T02:29:33.776Z,8.07
2018-08-04T02:30:07.637Z,8.40
2018-08-04T02:30:41.482Z,9.17
2018-08-04T02:31:16.018Z,10.20
2018-08-04T02:31:50.674Z,9.20
2018-08-04T02:32:24.933Z,9.47
2018-08-04T02:32:58.800Z,8.40
2018-08-04T02:33:32.641Z,8.47
2018-08-04T02:34:06.821Z,9.40
2018-08-04T02:34:40.708Z,8.80
2018-08-04T02:35:14.547Z,8.97
2018-08-04T02:35:48.740Z,9.37
2018-08-04T02:36:22.594Z,8.90
2018-08-04T02:36:56.751Z,8.87
2018-08-04T02:37:30.600Z,8.57
2018-08-04T02:38:04.461Z,8.70
2018-08-04T02:38:38.305Z,8.43
2018-08-04T02:39:12.494Z,9.00
2018-08-04T02:39:46.420Z,8.80
2018-08-04T02:40:20.276Z,10.47
2018-08-04T02:40:54.177Z,9.23
2018-08-04T02:41:28.057Z,8.80
2018-08-04T02:42:02.291Z,8.50
2018-08-04T02:42:36.544Z,9.73
2018-08-04T02:43:10.803Z,9.20
2018-08-04T02:43:44.713Z,8.50
2018-08-04T02:44:18.603Z,8.33
2018-08-04T02:44:52.507Z,8.70
2018-08-04T02:45:26.354Z,9.00
2018-08-04T02:46:00.631Z,8.30
2018-08-04T02:46:34.585Z,8.23
2018-08-04T02:47:08.499Z,9.43
2018-08-04T02:47:42.365Z,8.20
2018-08-04T02:48:16.271Z,8.57
2018-08-04T02:48:50.123Z,8.10
2018-08-04T02:49:24.044Z,8.50
2018-08-04T02:49:57.963Z,8.77
2018-08-04T02:50:31.852Z,8.30
2018-08-04T02:51:06.332Z,8.27
2018-08-04T02:51:40.540Z,7.93
2018-08-04T02:52:14.768Z,8.27
2018-08-04T02:52:48.660Z,8.63
2018-08-04T02:53:22.515Z,8.73
2018-08-04T02:53:56.351Z,8.60
2018-08-04T02:54:30.539Z,8.97
2018-08-04T02:55:05.214Z,7.90
2018-08-04T02:55:39.165Z,9.20
2018-08-04T02:56:13.167Z,8.73
2018-08-04T02:56:47.414Z,8.43
2018-08-04T02:57:21.644Z,8.30
2018-08-04T02:57:55.869Z,8.80
2018-08-04T02:58:30.065Z,8.47
2018-08-04T02:59:04.271Z,8.67
2018-08-04T02:59:38.154Z,8.60
2018-08-04T03:00:12.396Z,9.07
2018-08-04T03:00:46.270Z,8.97
2018-08-04T03:01:20.159Z,8.97
2018-08-04T03:01:54.039Z,8.60
2018-08-04T03:02:28.237Z,7.50
2018-08-04T03:03:02.134Z,7.87
2018-08-04T03:03:36.680Z,8.57
2018-08-04T03:04:10.546Z,8.60
2018-08-04T03:04:44.773Z,8.87
2018-08-04T03:05:18.662Z,8.10
2018-08-04T03:05:52.566Z,8.80
2018-08-04T03:06:26.679Z,8.80
2018-08-04T03:07:00.550Z,8.17
2018-08-04T03:07:34.785Z,8.93
2018-08-04T03:08:08.833Z,8.10
2018-08-04T03:08:43.317Z,8.50
2018-08-04T03:09:17.156Z,8.13
2018-08-04T03:09:51.102Z,8.63
2018-08-04T03:10:25.394Z,8.33
2018-08-04T03:10:59.815Z,8.63
2018-08-04T03:11:33.679Z,8.30
2018-08-04T03:12:07.832Z,8.90
2018-08-04T03:12:42.049Z,8.50
2018-08-04T03:13:15.887Z,8.50
2018-08-04T03:13:50.124Z,8.20
2018-08-04T03:14:23.958Z,7.67
2018-08-04T03:14:57.861Z,8.23
2018-08-04T03:15:31.707Z,9.27
2018-08-04T03:16:05.566Z,9.27
2018-08-04T03:16:39.761Z,9.23
2018-08-04T03:17:14.307Z,8.33
2018-08-04T03:17:48.566Z,8.40
2018-08-04T03:18:22.737Z,8.30
2018-08-04T03:19:00.077Z,8.40
2018-08-04T03:19:34.263Z,8.70
2018-08-04T03:20:08.906Z,8.80
2018-08-04T03:20:42.824Z,8.93
2018-08-04T03:21:17.376Z,8.73
2018-08-04T03:21:51.593Z,9.80
2018-08-04T03:22:25.413Z,8.67
2018-08-04T03:22:59.606Z,8.97
2018-08-04T03:23:33.804Z,9.37
2018-08-04T03:24:07.674Z,9.20
2018-08-04T03:24:41.578Z,8.97
2018-08-04T03:25:15.436Z,8.60
2018-08-04T03:25:49.641Z,9.23
2018-08-04T03:26:23.835Z,9.00
2018-08-04T03:26:57.680Z,9.67
2018-08-04T03:27:31.861Z,9.03
2018-08-04T03:28:06.420Z,9.03
2018-08-04T03:28:40.438Z,9.53
2018-08-04T03:29:14.600Z,7.90
2018-08-04T03:29:48.448Z,9.60
2018-08-04T03:30:22.731Z,8.57
2018-08-04T03:30:56.650Z,8.50
2018-08-04T03:31:31.170Z,8.93
2018-08-04T03:32:05.752Z,9.10
2018-08-04T03:32:39.641Z,9.00
2018-08-04T03:33:13.507Z,8.20
2018-08-04T03:33:47.434Z,8.53
2018-08-04T03:34:21.277Z,8.80
2018-08-04T03:34:55.173Z,8.73
2018-08-04T03:35:29.035Z,8.60
2018-08-04T03:36:02.709Z,8.67
2018-08-04T03:36:36.627Z,9.07
2018-08-04T03:37:10.469Z,9.23
2018-08-04T03:37:45.044Z,9.37
2018-08-04T03:38:19.215Z,9.03
2018-08-04T03:38:53.401Z,9.10
2018-08-04T03:39:27.605Z,9.40
2018-08-04T03:40:01.775Z,9.47
2018-08-04T03:40:35.683Z,9.20
2018-08-04T03:41:09.538Z,10.70
2018-08-04T03:41:43.417Z,10.23
2018-08-04T03:42:17.293Z,9.90
2018-08-04T03:42:51.575Z,11.07
2018-08-04T03:43:25.419Z,10.30
2018-08-04T03:43:59.269Z,10.77
2018-08-04T03:44:33.452Z,10.93
2018-08-04T03:45:07.688Z,11.00
2018-08-04T03:45:41.567Z,10.53
2018-08-04T03:46:15.773Z,11.10
2018-08-04T03:46:49.983Z,11.00
2018-08-04T03:47:24.152Z,10.80
2018-08-04T03:47:58.336Z,10.33
2018-08-04T03:48:32.317Z,10.90
2018-08-04T03:49:06.165Z,10.60
2018-08-04T03:49:40.331Z,11.30
2018-08-04T03:50:14.198Z,11.57
2018-08-04T03:50:48.088Z,11.30
2018-08-04T03:51:21.956Z,10.67
2018-08-04T03:51:56.169Z,11.37
2018-08-04T03:52:30.012Z,10.10
2018-08-04T03:53:04.180Z,10.30
2018-08-04T03:53:38.361Z,12.23
2018-08-04T03:54:12.579Z,10.50
2018-08-04T03:54:46.447Z,10.80
2018-08-04T03:55:20.689Z,9.73
2018-08-04T03:55:54.909Z,10.80
2018-08-04T03:56:28.889Z,10.80
2018-08-04T03:57:02.789Z,10.00
2018-08-04T03:57:36.642Z,10.33
2018-08-04T03:58:10.853Z,10.27
2018-08-04T03:58:44.761Z,10.20
2018-08-04T03:59:18.630Z,10.40
2018-08-04T03:59:52.485Z,9.60
2018-08-04T04:00:26.364Z,10.10
2018-08-04T04:01:00.560Z,10.70
2018-08-04T04:01:34.438Z,9.53
2018-08-04T04:02:08.643Z,9.60
2018-08-04T04:02:42.843Z,9.80
2018-08-04T04:03:16.674Z,9.43
2018-08-04T04:03:50.529Z,9.70
2018-08-04T04:04:24.372Z,10.07
2018-08-04T04:04:58.287Z,10.43
2018-08-04T04:05:32.492Z,10.00
2018-08-04T04:06:06.739Z,10.20
2018-08-04T04:06:41.012Z,10.73
2018-08-04T04:07:15.350Z,10.40
2018-08-04T04:07:49.210Z,10.90
2018-08-04T04:08:23.395Z,11.03
2018-08-04T04:08:57.498Z,11.13
2018-08-04T04:09:31.371Z,10.53
2018-08-04T04:10:05.477Z,10.10
2018-08-04T04:10:39.360Z,10.37
2018-08-04T04:11:13.240Z,10.13
2018-08-04T04:11:47.093Z,10.10
2018-08-04T04:12:20.978Z,10.63
2018-08-04T04:12:54.805Z,10.60
2018-08-04T04:13:28.664Z,9.83
2018-08-04T04:14:02.788Z,10.37
2018-08-04T04:14:36.633Z,10.43
2018-08-04T04:15:10.851Z,9.60
2018-08-04T04:15:45.078Z,10.67
2018-08-04T04:16:18.964Z,10.47
2018-08-04T04:16:52.835Z,10.60
2018-08-04T04:17:27.053Z,10.77
2018-08-04T04:18:00.958Z,11.30
2018-08-04T04:18:34.842Z,11.23
2018-08-04T04:19:09.025Z,10.07
2018-08-04T04:19:43.305Z,11.30
2018-08-04T04:20:19.652Z,9.40
2018-08-04T04:20:53.960Z,11.50
2018-08-04T04:21:27.901Z,11.07
2018-08-04T04:22:01.830Z,9.97
2018-08-04T04:22:35.952Z,9.30
2018-08-04T04:23:09.828Z,10.80
2018-08-04T04:23:43.720Z,10.37
2018-08-04T04:24:17.577Z,10.60
2018-08-04T04:24:51.774Z,10.80
2018-08-04T04:25:25.670Z,10.10
2018-08-04T04:25:59.876Z,9.67
2018-08-04T04:26:33.766Z,9.43
2018-08-04T04:27:07.988Z,10.70
2018-08-04T04:27:41.978Z,10.27
2018-08-04T04:28:15.878Z,9.97
2018-08-04T04:28:49.766Z,10.80
2018-08-04T04:29:23.646Z,9.30
2018-08-04T04:29:57.570Z,9.60
2018-08-04T04:30:31.792Z,10.30
2018-08-04T04:31:05.984Z,10.07
2018-08-04T04:31:39.884Z,10.60
2018-08-04T04:32:13.746Z,9.73
2018-08-04T04:32:47.938Z,9.60
2018-08-04T04:33:21.828Z,9.73
2018-08-04T04:33:55.704Z,9.90
2018-08-04T04:34:29.577Z,11.40
2018-08-04T04:35:03.474Z,10.00
2018-08-04T04:35:37.734Z,10.00
2018-08-04T04:36:11.646Z,9.97
2018-08-04T04:36:45.883Z,10.23
2018-08-04T04:37:19.770Z,10.10
2018-08-04T04:37:53.978Z,10.50
2018-08-04T04:38:27.857Z,10.03
2018-08-04T04:39:01.721Z,10.70
2018-08-04T04:39:35.926Z,10.10
2018-08-04T04:40:09.814Z,10.63
2018-08-04T04:40:43.806Z,11.50
2018-08-04T04:41:17.688Z,10.60
2018-08-04T04:41:51.924Z,11.03
2018-08-04T04:42:26.432Z,11.90
2018-08-04T04:43:00.285Z,10.80
2018-08-04T04:43:34.516Z,11.90
2018-08-04T04:44:09.056Z,11.30
2018-08-04T04:44:42.910Z,10.90
2018-08-04T04:45:17.088Z,10.47
2018-08-04T04:45:51.290Z,11.13
2018-08-04T04:46:25.243Z,11.20
2018-08-04T04:46:59.103Z,10.80
2018-08-04T04:47:32.959Z,10.10
2018-08-04T04:48:07.173Z,10.57
2018-08-04T04:48:41.029Z,10.90
2018-08-04T04:49:14.927Z,10.20
2018-08-04T04:49:48.796Z,10.07
2018-08-04T04:50:22.652Z,10.50
2018-08-04T04:50:56.717Z,10.40
2018-08-04T04:51:30.582Z,10.10
2018-08-04T04:52:04.404Z,10.33
2018-08-04T04:52:38.318Z,10.60
2018-08-04T04:53:12.180Z,10.63
2018-08-04T04:53:46.014Z,10.77
2018-08-04T04:54:20.271Z,10.20
2018-08-04T04:54:53.886Z,11.60
2018-08-04T04:55:27.729Z,10.10
2018-08-04T04:56:01.762Z,10.43
2018-08-04T04:56:35.787Z,9.90
2018-08-04T04:57:09.677Z,9.17
2018-08-04T04:57:43.840Z,9.03
2018-08-04T04:58:18.023Z,9.97
2018-08-04T04:58:52.194Z,9.80
2018-08-04T04:59:26.057Z,10.10
2018-08-04T05:00:02.110Z,9.03
2018-08-04T05:00:35.950Z,10.60
2018-08-04T05:01:09.826Z,10.30
2018-08-04T05:01:43.701Z,10.40
2018-08-04T05:02:17.896Z,9.47
2018-08-04T05:02:52.091Z,9.90
2018-08-04T05:03:25.942Z,9.57
2018-08-04T05:04:00.212Z,10.13
2018-08-04T05:04:34.127Z,10.13
2018-08-04T05:05:08.690Z,10.40
2018-08-04T05:05:42.579Z,10.57
2018-08-04T05:06:16.786Z,10.33
2018-08-04T05:06:50.644Z,9.83
2018-08-04T05:07:24.541Z,11.10
2018-08-04T05:07:58.438Z,10.60
2018-08-04T05:08:32.347Z,10.73
2018-08-04T05:09:07.480Z,10.83
2018-08-04T05:09:41.341Z,11.20
2018-08-04T05:10:15.189Z,10.00
2018-08-04T05:10:49.035Z,10.80
2018-08-04T05:11:23.285Z,10.70
2018-08-04T05:11:57.126Z,10.97
2018-08-04T05:12:31.079Z,10.27
2018-08-04T05:13:05.465Z,11.03
2018-08-04T05:13:39.363Z,10.47
2018-08-04T05:14:13.571Z,9.90
2018-08-04T05:14:47.657Z,10.00
2018-08-04T05:15:22.312Z,11.77
2018-08-04T05:15:56.203Z,10.90
2018-08-04T05:16:30.436Z,9.70
2018-08-04T05:17:04.267Z,9.87
2018-08-04T05:17:38.294Z,10.70
2018-08-04T05:18:12.191Z,10.67
2018-08-04T05:18:46.077Z,10.73
2018-08-04T05:19:19.972Z,10.30
2018-08-04T05:19:53.827Z,10.57
2018-08-04T05:20:27.685Z,10.73
2018-08-04T05:21:01.523Z,10.97
2018-08-04T05:21:35.396Z,9.40
2018-08-04T05:22:09.543Z,11.20
2018-08-04T05:22:43.347Z,11.20
2018-08-04T05:23:17.200Z,10.23
2018-08-04T05:23:51.375Z,10.50
2018-08-04T05:24:25.269Z,11.13
2018-08-04T05:24:59.127Z,10.50
2018-08-04T05:25:33.091Z,10.20
2018-08-04T05:26:07.336Z,10.90
2018-08-04T05:26:41.213Z,10.77
2018-08-04T05:27:16.717Z,10.90
2018-08-04T05:27:50.630Z,10.60
2018-08-04T05:28:24.848Z,9.90
2018-08-04T05:28:59.069Z,11.70
2018-08-04T05:29:33.290Z,9.23
2018-08-04T05:30:07.521Z,9.03
2018-08-04T05:30:41.443Z,9.87
2018-08-04T05:31:15.360Z,9.83
2018-08-04T05:31:49.564Z,10.07
2018-08-04T05:32:23.435Z,9.40
2018-08-04T05:32:57.677Z,10.10
2018-08-04T05:33:31.902Z,10.37
2018-08-04T05:34:05.802Z,8.83
2018-08-04T05:34:39.659Z,9.17
2018-08-04T05:35:13.875Z,9.70
2018-08-04T05:35:48.097Z,10.20
2018-08-04T05:36:22.729Z,10.17
2018-08-04T05:36:56.617Z,9.53
2018-08-04T05:37:30.518Z,8.97
2018-08-04T05:38:04.615Z,8.60
2018-08-04T05:38:38.819Z,9.70
2018-08-04T05:39:13.859Z,8.03
2018-08-04T05:39:48.071Z,9.03
2018-08-04T05:40:22.289Z,8.43
2018-08-04T05:40:56.153Z,9.00
2018-08-04T05:41:30.037Z,8.57
2018-08-04T05:42:03.883Z,7.90
2018-08-04T05:42:38.058Z,8.67
2018-08-04T05:43:12.053Z,8.23
2018-08-04T05:43:45.849Z,8.30
2018-08-04T05:44:19.786Z,8.10
2018-08-04T05:44:54.329Z,8.37
2018-08-04T05:45:28.165Z,8.50
2018-08-04T05:46:02.053Z,8.73
2018-08-04T05:46:36.213Z,8.90
2018-08-04T05:47:10.427Z,9.10
2018-08-04T05:47:44.305Z,9.03
2018-08-04T05:48:18.198Z,10.10
2018-08-04T05:48:54.891Z,10.70
2018-08-04T05:49:29.079Z,9.40
2018-08-04T05:50:02.998Z,9.80
2018-08-04T05:50:37.024Z,9.50
2018-08-04T05:51:11.202Z,10.47
2018-08-04T05:51:45.070Z,10.13
2018-08-04T05:52:19.631Z,9.30
2018-08-04T05:52:53.476Z,9.93
2018-08-04T05:53:27.751Z,10.13
2018-08-04T05:54:01.603Z,9.80
2018-08-04T05:54:35.437Z,10.00
2018-08-04T05:55:09.599Z,9.23
2018-08-04T05:55:43.455Z,9.77
2018-08-04T05:56:17.641Z,10.33
2018-08-04T05:56:51.799Z,10.90
2018-08-04T05:57:25.659Z,9.30
2018-08-04T05:57:59.566Z,10.40
2018-08-04T05:58:33.610Z,8.50
2018-08-04T05:59:07.553Z,9.57
2018-08-04T05:59:41.749Z,8.90
2018-08-04T06:00:15.658Z,8.90
2018-08-04T06:00:50.072Z,9.07
2018-08-04T06:01:23.986Z,9.07
2018-08-04T06:01:58.493Z,9.27
2018-08-04T06:02:32.663Z,9.90
2018-08-04T06:03:06.657Z,8.83
2018-08-04T06:03:41.023Z,9.00
2018-08-04T06:04:15.217Z,8.67
2018-08-04T06:04:49.416Z,8.60
2018-08-04T06:05:23.309Z,8.17
2018-08-04T06:05:57.477Z,9.17
2018-08-04T06:06:31.655Z,9.60
2018-08-04T06:07:05.861Z,9.20
2018-08-04T06:07:39.744Z,8.80
2018-08-04T06:08:13.601Z,9.13
2018-08-04T06:08:47.462Z,9.83
2018-08-04T06:09:21.351Z,9.87
2018-08-04T06:09:55.235Z,8.97
2018-08-04T06:10:29.105Z,9.50
2018-08-04T06:11:03.001Z,9.03
2018-08-04T06:11:37.187Z,9.27
2018-08-04T06:12:11.369Z,9.43
2018-08-04T06:12:45.537Z,9.00
2018-08-04T06:13:19.441Z,9.70
2018-08-04T06:13:53.675Z,10.40
2018-08-04T06:14:27.533Z,8.87
2018-08-04T06:15:01.715Z,8.50
2018-08-04T06:15:36.241Z,9.47
2018-08-04T06:16:10.174Z,8.63
2018-08-04T06:16:44.027Z,9.73
2018-08-04T06:17:17.885Z,8.43
2018-08-04T06:17:51.773Z,9.00
2018-08-04T06:18:25.959Z,9.00
2018-08-04T06:18:59.877Z,9.07
2018-08-04T06:19:33.781Z,8.90
2018-08-04T06:20:07.655Z,9.53
2018-08-04T06:20:42.176Z,8.07
2018-08-04T06:21:16.745Z,7.67
2018-08-04T06:21:50.601Z,7.77
2018-08-04T06:22:25.139Z,8.53
2018-08-04T06:22:58.979Z,7.90
2018-08-04T06:23:32.905Z,8.70
2018-08-04T06:24:06.795Z,9.10
2018-08-04T06:24:41.059Z,7.93
2018-08-04T06:25:15.275Z,8.67
2018-08-04T06:25:49.141Z,8.00
2018-08-04T06:26:22.988Z,7.40
2018-08-04T06:26:56.863Z,7.60
2018-08-04T06:27:30.673Z,7.53
2018-08-04T06:28:04.839Z,7.50
2018-08-04T06:28:39.113Z,7.17
2018-08-04T06:29:13.346Z,9.10
2018-08-04T06:29:47.737Z,8.70
2018-08-04T06:30:21.571Z,8.43
2018-08-04T06:30:55.796Z,7.63
2018-08-04T06:31:29.654Z,8.30
2018-08-04T06:32:03.932Z,7.30
2018-08-04T06:32:37.785Z,7.43
2018-08-04T06:33:11.989Z,7.40
2018-08-04T06:33:45.821Z,9.33
2018-08-04T06:34:19.743Z,8.97
2018-08-04T06:34:53.902Z,8.40
2018-08-04T06:35:28.095Z,8.27
2018-08-04T06:36:02.316Z,8.83
2018-08-04T06:36:36.195Z,9.83
2018-08-04T06:37:10.409Z,9.67
2018-08-04T06:37:44.227Z,8.20
2018-08-04T06:38:18.403Z,8.90
2018-08-04T06:38:52.237Z,9.07
2018-08-04T06:39:26.119Z,9.07
2018-08-04T06:40:40.196Z,8.83
2018-08-04T06:41:14.026Z,8.47
2018-08-04T06:41:47.903Z,8.70
2018-08-04T06:42:21.774Z,8.37
2018-08-04T06:42:55.934Z,7.97
2018-08-04T06:43:29.815Z,7.10
2018-08-04T06:44:04.032Z,7.17
2018-08-04T06:44:37.873Z,7.63
2018-08-04T06:45:12.407Z,7.20
2018-08-04T06:45:46.224Z,7.03
2018-08-04T06:46:20.108Z,7.00
2018-08-04T06:46:54.305Z,6.10
2018-08-04T06:47:28.200Z,6.37
2018-08-04T06:48:02.075Z,5.63
2018-08-04T06:48:36.496Z,6.27
2018-08-04T06:49:11.090Z,5.60
2018-08-04T06:49:44.949Z,5.90
2018-08-04T06:50:19.173Z,6.13
2018-08-04T06:50:53.211Z,5.30
2018-08-04T06:51:27.116Z,4.70
2018-08-04T06:52:01.337Z,4.30
2018-08-04T06:52:35.681Z,4.77
2018-08-04T06:53:09.906Z,4.83
2018-08-04T06:53:43.811Z,4.47
2018-08-04T06:54:18.005Z,4.50
2018-08-04T06:54:52.230Z,4.10
2018-08-04T06:55:26.287Z,4.10
2018-08-04T06:56:00.573Z,4.70
2018-08-04T06:56:34.900Z,4.50
2018-08-04T06:57:08.813Z,4.40
2018-08-04T06:57:43.007Z,4.60
2018-08-04T06:58:16.881Z,4.50
2018-08-04T06:58:51.175Z,3.40
2018-08-04T06:59:25.133Z,4.57
2018-08-04T06:59:58.999Z,4.10
2018-08-04T07:00:32.849Z,4.83
2018-08-04T07:01:07.097Z,4.17
2018-08-04T07:01:41.635Z,4.47
2018-08-04T07:02:15.860Z,3.67
2018-08-04T07:02:49.724Z,3.53
2018-08-04T07:03:23.613Z,4.17
2018-08-04T07:03:57.505Z,4.30
2018-08-04T07:04:31.383Z,4.33
2018-08-04T07:05:05.483Z,3.57
2018-08-04T07:05:39.365Z,3.97
2018-08-04T07:06:13.293Z,3.57
2018-08-04T07:06:47.489Z,3.40
2018-08-04T07:07:21.717Z,3.30
2018-08-04T07:07:55.895Z,3.17
2018-08-04T07:08:29.797Z,3.50
2018-08-04T07:09:04.400Z,4.00
2018-08-04T07:09:38.281Z,3.63
2018-08-04T07:10:12.499Z,3.40
2018-08-04T07:10:46.683Z,3.80
2018-08-04T07:11:20.533Z,3.60
2018-08-04T07:11:54.402Z,3.70
2018-08-04T07:12:28.633Z,4.07
2018-08-04T07:13:02.875Z,3.43
2018-08-04T07:13:36.786Z,3.20
2018-08-04T07:14:10.933Z,3.87
2018-08-04T07:14:44.848Z,3.20
2018-08-04T07:15:19.013Z,4.30
2018-08-04T07:15:52.879Z,3.60
2018-08-04T07:16:26.748Z,3.40
2018-08-04T07:17:00.974Z,2.83
2018-08-04T07:17:35.177Z,3.87
2018-08-04T07:18:09.012Z,3.80
2018-08-04T07:18:42.871Z,3.37
2018-08-04T07:19:16.765Z,3.30
2018-08-04T07:19:50.596Z,3.50
2018-08-04T07:20:24.440Z,3.70
2018-08-04T07:20:58.605Z,3.30
2018-08-04T07:21:32.604Z,2.73
2018-08-04T07:22:06.468Z,3.20
2018-08-04T07:22:40.325Z,3.20
2018-08-04T07:23:14.542Z,2.60
2018-08-04T07:23:48.742Z,2.70
2018-08-04T07:24:22.944Z,2.73
2018-08-04T07:24:56.862Z,3.23
2018-08-04T07:25:31.456Z,2.60
2018-08-04T07:26:05.396Z,2.53
2018-08-04T07:26:39.603Z,2.60
2018-08-04T07:27:13.520Z,2.87
2018-08-04T07:27:47.733Z,2.43
2018-08-04T07:28:21.929Z,2.00
2018-08-04T07:28:56.162Z,2.90
2018-08-04T07:29:30.240Z,2.33
2018-08-04T07:30:04.229Z,2.60
2018-08-04T07:30:37.984Z,2.60
2018-08-04T07:31:12.219Z,2.60
2018-08-04T07:31:46.077Z,2.00
2018-08-04T07:32:20.266Z,2.20
2018-08-04T07:32:54.182Z,2.13
2018-08-04T07:33:28.405Z,2.47
2018-08-04T07:34:02.277Z,2.00
2018-08-04T07:34:36.196Z,2.53
2018-08-04T07:35:10.062Z,2.30
2018-08-04T07:35:44.292Z,2.67